This is the latest recevied weather packets stored in our database for station/object W1BKW. If no packets are shown the sender has not sent any weather packets the latest 1 day(s).
| Time | Temp. | Humidity | Pressure | Rain* | Wind** | Luminosity | Snow |
|---|---|---|---|---|---|---|---|
| 1836274253 | 7.22° C | 86% | 1021 hPa | 0 mm | 0.45 m/s, 104° | 0 W/m² | - |
| 1836274103 | 7.78° C | 86% | 1020.7 hPa | 0 mm | 0 m/s | 0 W/m² | - |
| 1778047618 | 15° C | 94% | 1006.1 hPa | 0 mm | 0 m/s | 0 W/m² | - |
| 1778046714 | 15° C | 93% | 1005.8 hPa | 0 mm | 0.89 m/s, 157° | 0 W/m² | - |
| 1778045811 | 15° C | 92% | 1005.8 hPa | 0 mm | 0.45 m/s, 181° | 0 W/m² | - |
| 1778044911 | 15.56° C | 91% | 1006 hPa | 0 mm | 0.45 m/s, 212° | 0 W/m² | - |
| 1778044009 | 15.56° C | 93% | 1005.8 hPa | 0 mm | 0.45 m/s, 163° | 0 W/m² | - |
| 1778043104 | 15.56° C | 90% | 1005.8 hPa | 0 mm | 0.45 m/s, 178° | 0 W/m² | - |
| 1778042202 | 15.56° C | 91% | 1005.8 hPa | 0 mm | 1.34 m/s, 168° | 0 W/m² | - |
| 1778041302 | 15° C | 94% | 1005.9 hPa | 0 mm | 0 m/s | 0 W/m² | - |
| 1778040401 | 13.33° C | 99% | 1006.1 hPa | 0 mm | 0.45 m/s, 142° | 0 W/m² | - |
| 1778039497 | 12.22° C | 99% | 1006.1 hPa | 0 mm | 0 m/s | 0 W/m² | - |
| 1778038594 | 12.78° C | 99% | 1005.6 hPa | 0 mm | 0 m/s | 0 W/m² | - |
| 1778037691 | 13.33° C | 99% | 1005.6 hPa | 0 mm | 0 m/s | 0 W/m² | - |
| 1778036789 | 13.33° C | 99% | 1005.8 hPa | 0 mm | 0 m/s | 0 W/m² | - |
| 1778035884 | 13.89° C | 99% | 1005.8 hPa | 0 mm | 0 m/s | 0 W/m² | - |
| 1778034981 | 14.44° C | 99% | 1006 hPa | 0 mm | 0.89 m/s, 111° | 0 W/m² | - |
| 1778034078 | 14.44° C | 99% | 1006.2 hPa | 0 mm | 0.45 m/s, 145° | 0 W/m² | - |
| 1778033176 | 14.44° C | 99% | 1006 hPa | 0 mm | 0.45 m/s, 144° | 0 W/m² | - |
| 1778032273 | 13.89° C | 99% | 1006.1 hPa | 0 mm | 0 m/s | 0 W/m² | - |
| 1778031371 | 13.89° C | 99% | 1006 hPa | 0 mm | 0 m/s | 0 W/m² | - |
| 1778030466 | 14.44° C | 99% | 1005.7 hPa | 0 mm | 0.45 m/s, 150° | 0 W/m² | - |
| 1778029565 | 14.44° C | 99% | 1005.5 hPa | 0 mm | 0.45 m/s, 156° | 0 W/m² | - |
| 1778028661 | 14.44° C | 99% | 1005.6 hPa | 0 mm | 0.45 m/s, 141° | 0 W/m² | - |
| 1778027756 | 14.44° C | 99% | 1005.3 hPa | 0 mm | 0 m/s | 0 W/m² | - |
* Rain latest hour (hover to see other rain measurements)
** Current wind speed in m/s (hover to see current wind gust speed)